createdAt,value
2023-01-31T00:02:20.720Z,37.10
2023-01-31T00:04:49.290Z,36.90
2023-01-31T00:07:17.160Z,37.10
2023-01-31T00:09:45.037Z,37.10
2023-01-31T00:12:12.917Z,37.20
2023-01-31T00:14:40.900Z,37.20
2023-01-31T00:17:08.871Z,37.20
2023-01-31T00:19:37.267Z,36.80
2023-01-31T00:22:05.241Z,37.20
2023-01-31T00:24:33.144Z,37.10
2023-01-31T00:27:01.086Z,37.20
2023-01-31T00:29:29.007Z,37.10
2023-01-31T00:31:57.072Z,37.10
2023-01-31T00:34:25.012Z,37.00
2023-01-31T00:36:52.856Z,37.10
2023-01-31T00:39:20.791Z,37.30
2023-01-31T00:41:48.661Z,37.00
2023-01-31T00:44:16.574Z,37.20
2023-01-31T00:46:44.502Z,37.30
2023-01-31T00:49:12.315Z,37.20
2023-01-31T00:51:40.211Z,37.60
2023-01-31T00:54:08.080Z,37.30
2023-01-31T00:56:36.135Z,37.50
2023-01-31T00:59:04.592Z,37.30
2023-01-31T01:01:32.472Z,37.40
2023-01-31T01:04:00.353Z,37.30
2023-01-31T01:06:28.241Z,37.60
2023-01-31T01:08:56.251Z,37.40
2023-01-31T01:11:24.309Z,37.60
2023-01-31T01:13:52.264Z,37.60
2023-01-31T01:16:20.210Z,37.60
2023-01-31T01:18:49.369Z,37.30
2023-01-31T01:21:17.240Z,37.50
2023-01-31T01:23:45.064Z,37.70
2023-01-31T01:26:13.047Z,37.50
2023-01-31T01:28:41.152Z,37.60
2023-01-31T01:31:09.134Z,37.50
2023-01-31T01:33:37.101Z,37.60
2023-01-31T01:36:05.345Z,37.60
2023-01-31T01:38:33.607Z,37.60
2023-01-31T01:41:02.241Z,37.60
2023-01-31T01:43:30.787Z,37.60
2023-01-31T01:45:58.676Z,37.70
2023-01-31T01:48:26.574Z,37.60
2023-01-31T01:50:54.474Z,37.80
2023-01-31T01:53:22.466Z,37.60
2023-01-31T01:55:50.539Z,37.90
2023-01-31T01:58:18.613Z,37.50
2023-01-31T02:00:46.535Z,37.80
2023-01-31T02:03:14.622Z,37.80
2023-01-31T02:05:42.501Z,37.70
2023-01-31T02:08:11.363Z,37.80
2023-01-31T02:10:39.236Z,37.80
2023-01-31T02:13:07.172Z,37.90
2023-01-31T02:15:35.097Z,37.80
2023-01-31T02:18:02.991Z,37.80
2023-01-31T02:20:30.880Z,37.80
2023-01-31T02:22:58.805Z,38.10
2023-01-31T02:25:26.809Z,37.90
2023-01-31T02:27:54.794Z,37.80
2023-01-31T02:30:22.955Z,37.90
2023-01-31T02:32:50.919Z,37.90
2023-01-31T02:35:19.214Z,37.90
2023-01-31T02:37:47.290Z,37.90
2023-01-31T02:40:15.215Z,37.90
2023-01-31T02:42:43.105Z,37.90
2023-01-31T02:45:09.988Z,37.90
2023-01-31T02:47:37.911Z,37.90
2023-01-31T02:50:05.855Z,37.80
2023-01-31T02:52:33.747Z,37.90
2023-01-31T02:55:19.329Z,37.90
2023-01-31T02:57:47.320Z,37.90
2023-01-31T03:00:15.248Z,38.10
2023-01-31T03:02:43.170Z,38.10
2023-01-31T03:05:11.002Z,38.10
2023-01-31T03:07:39.048Z,38.00
2023-01-31T03:10:06.926Z,37.90
2023-01-31T03:12:34.841Z,37.90
2023-01-31T03:15:02.701Z,38.00
2023-01-31T03:17:32.902Z,37.90
2023-01-31T03:20:00.864Z,37.90
2023-01-31T03:22:28.757Z,38.10
2023-01-31T03:24:56.660Z,38.10
2023-01-31T03:27:24.551Z,38.00
2023-01-31T03:29:52.491Z,38.10
2023-01-31T03:32:20.614Z,38.20
2023-01-31T03:34:48.523Z,38.10
2023-01-31T03:37:16.592Z,38.30
2023-01-31T03:39:44.863Z,38.20
2023-01-31T03:42:13.551Z,38.30
2023-01-31T03:44:41.429Z,38.30
2023-01-31T03:47:09.344Z,38.20
2023-01-31T03:49:37.252Z,38.10
2023-01-31T03:52:05.406Z,38.20
2023-01-31T03:54:33.274Z,38.20
2023-01-31T03:59:58.044Z,38.20
2023-01-31T04:02:25.948Z,38.10
2023-01-31T04:04:53.816Z,38.20
2023-01-31T04:07:21.682Z,38.20
2023-01-31T04:09:49.630Z,38.30
2023-01-31T04:12:17.522Z,38.20
2023-01-31T04:14:45.455Z,38.20
2023-01-31T04:17:13.469Z,38.20
2023-01-31T04:19:41.362Z,38.20
2023-01-31T04:22:09.258Z,38.30
2023-01-31T04:24:37.297Z,38.10
2023-01-31T04:27:05.306Z,38.20
2023-01-31T04:29:33.200Z,38.20
2023-01-31T04:32:01.174Z,38.30
2023-01-31T04:34:29.108Z,38.30
2023-01-31T04:36:57.037Z,38.10
2023-01-31T04:39:24.905Z,38.20
2023-01-31T04:41:52.864Z,38.10
2023-01-31T04:44:20.691Z,38.20
2023-01-31T04:46:48.676Z,37.90
2023-01-31T04:49:16.850Z,38.10
2023-01-31T04:51:44.720Z,38.20
2023-01-31T04:54:12.558Z,37.90
2023-01-31T04:56:40.426Z,38.10
2023-01-31T04:59:08.818Z,38.10
2023-01-31T05:01:36.781Z,37.90
2023-01-31T05:04:04.906Z,38.20
2023-01-31T05:06:32.861Z,38.20
2023-01-31T05:09:01.694Z,38.10
2023-01-31T05:11:29.735Z,38.20
2023-01-31T05:13:57.670Z,38.20
2023-01-31T05:16:25.623Z,38.20
2023-01-31T05:18:53.592Z,38.00
2023-01-31T05:21:21.446Z,38.10
2023-01-31T05:23:49.390Z,38.00
2023-01-31T05:26:20.252Z,38.20
2023-01-31T05:28:48.233Z,37.90
2023-01-31T05:31:16.332Z,38.20
2023-01-31T05:33:44.670Z,38.10
2023-01-31T05:36:12.665Z,38.00
2023-01-31T05:38:40.576Z,38.00
2023-01-31T05:41:08.456Z,38.10
2023-01-31T05:43:37.152Z,38.20
2023-01-31T05:46:05.142Z,38.40
2023-01-31T05:48:33.521Z,38.30
2023-01-31T05:51:02.063Z,38.20
2023-01-31T05:53:30.043Z,38.20
2023-01-31T05:55:57.926Z,38.30
2023-01-31T05:58:25.793Z,38.10
2023-01-31T06:00:53.668Z,38.20
2023-01-31T06:03:21.626Z,38.30
2023-01-31T06:05:49.459Z,38.40
2023-01-31T06:08:17.908Z,38.40
2023-01-31T06:10:45.773Z,38.40
2023-01-31T06:13:13.684Z,38.30
2023-01-31T06:15:41.560Z,38.40
2023-01-31T06:18:09.464Z,38.40
2023-01-31T06:20:38.930Z,38.30
2023-01-31T06:23:06.849Z,38.50
2023-01-31T06:25:34.834Z,38.40
2023-01-31T06:28:02.721Z,38.50
2023-01-31T06:30:30.944Z,38.40
2023-01-31T06:32:58.891Z,38.40
2023-01-31T06:35:26.798Z,38.50
2023-01-31T06:37:54.654Z,38.50
2023-01-31T06:40:22.580Z,38.50
2023-01-31T06:42:50.441Z,38.50
2023-01-31T06:45:18.750Z,38.40
2023-01-31T06:47:46.893Z,38.50
2023-01-31T06:50:14.718Z,38.50
2023-01-31T06:52:42.624Z,38.50
2023-01-31T06:55:10.568Z,38.50
2023-01-31T06:57:38.487Z,38.50
2023-01-31T07:00:06.421Z,38.40
2023-01-31T07:02:34.476Z,38.40
2023-01-31T07:05:02.450Z,38.50
2023-01-31T07:07:30.361Z,38.30
2023-01-31T07:09:58.250Z,38.50
2023-01-31T07:12:26.168Z,38.50
2023-01-31T07:14:54.074Z,38.40
2023-01-31T07:17:22.504Z,38.50
2023-01-31T07:19:50.432Z,38.50
2023-01-31T07:22:21.584Z,38.30
2023-01-31T07:24:50.953Z,38.60
2023-01-31T07:27:19.007Z,38.30
2023-01-31T07:29:46.912Z,38.40
2023-01-31T07:32:14.775Z,38.40
2023-01-31T07:34:42.610Z,38.20
2023-01-31T07:37:10.516Z,38.50
2023-01-31T07:39:38.526Z,39.10
2023-01-31T07:42:06.448Z,38.40
2023-01-31T07:44:34.424Z,38.30
2023-01-31T07:47:02.409Z,38.40
2023-01-31T07:49:30.760Z,38.30
2023-01-31T07:51:58.847Z,38.50
2023-01-31T07:54:26.705Z,38.50
2023-01-31T07:56:54.569Z,38.40
2023-01-31T07:59:22.413Z,38.50
2023-01-31T08:02:08.208Z,38.50
2023-01-31T08:04:36.205Z,38.50
2023-01-31T08:07:05.860Z,38.40
2023-01-31T08:09:33.764Z,38.50
2023-01-31T08:12:01.626Z,38.40
2023-01-31T08:14:29.462Z,38.50
2023-01-31T08:16:57.380Z,38.50
2023-01-31T08:19:26.738Z,38.50
2023-01-31T08:21:54.576Z,38.50
2023-01-31T08:24:22.408Z,38.50
2023-01-31T08:26:50.329Z,38.40
2023-01-31T08:29:18.302Z,38.50
2023-01-31T08:31:46.291Z,38.50
2023-01-31T08:34:14.209Z,38.40
2023-01-31T08:36:42.049Z,38.40
2023-01-31T08:39:09.989Z,38.40
2023-01-31T08:41:38.034Z,38.30
2023-01-31T08:44:05.917Z,38.40
2023-01-31T08:46:33.937Z,38.40
2023-01-31T08:49:01.899Z,38.60
2023-01-31T08:51:30.243Z,38.50
2023-01-31T08:53:58.260Z,38.50
2023-01-31T08:56:27.958Z,38.50
2023-01-31T08:58:56.010Z,38.50
2023-01-31T09:01:23.969Z,38.70
2023-01-31T09:03:56.659Z,38.60
2023-01-31T09:06:25.060Z,38.70
2023-01-31T09:08:53.007Z,38.60
2023-01-31T09:11:22.149Z,38.70
2023-01-31T09:13:51.687Z,38.70
2023-01-31T09:16:19.624Z,38.70
2023-01-31T09:18:47.587Z,38.70
2023-01-31T09:21:15.462Z,38.70
2023-01-31T09:23:43.441Z,38.70
2023-01-31T09:26:11.456Z,38.70
2023-01-31T09:28:39.951Z,38.60
2023-01-31T09:31:07.948Z,38.60
2023-01-31T09:33:35.939Z,38.60
2023-01-31T09:36:03.851Z,38.70
2023-01-31T09:38:31.777Z,38.70
2023-01-31T09:40:59.694Z,38.60
2023-01-31T09:43:27.549Z,38.70
2023-01-31T09:45:55.958Z,38.70
2023-01-31T09:48:23.828Z,38.80
2023-01-31T09:50:52.090Z,38.70
2023-01-31T09:53:22.059Z,38.90
2023-01-31T09:55:49.992Z,38.80
2023-01-31T09:58:17.861Z,38.80
2023-01-31T10:00:46.750Z,39.00
2023-01-31T10:03:14.984Z,38.80
2023-01-31T10:05:42.960Z,38.90
2023-01-31T10:08:10.874Z,38.80
2023-01-31T10:10:38.735Z,38.80
2023-01-31T10:13:06.636Z,38.80
2023-01-31T10:15:34.560Z,38.80
2023-01-31T10:18:02.516Z,38.70
2023-01-31T10:20:33.636Z,38.80
2023-01-31T10:23:02.917Z,38.80
2023-01-31T10:25:31.448Z,38.70
2023-01-31T10:28:01.022Z,38.80
2023-01-31T10:30:30.294Z,38.80
2023-01-31T10:32:58.560Z,38.80
2023-01-31T10:35:26.448Z,38.80
2023-01-31T10:37:54.402Z,38.80
2023-01-31T10:40:23.180Z,38.70
2023-01-31T10:42:52.854Z,38.80
2023-01-31T10:45:21.818Z,38.70
2023-01-31T10:47:50.210Z,38.70
2023-01-31T10:50:18.851Z,38.80
2023-01-31T10:52:49.582Z,38.70
2023-01-31T10:55:18.186Z,38.70
2023-01-31T10:57:46.122Z,38.70
2023-01-31T11:00:14.060Z,38.80
2023-01-31T11:02:41.906Z,38.80
2023-01-31T11:05:10.188Z,38.90
2023-01-31T11:07:38.063Z,38.80
2023-01-31T11:10:05.908Z,38.90
2023-01-31T11:12:33.927Z,38.80
2023-01-31T11:15:01.829Z,38.80
2023-01-31T11:17:29.917Z,38.90
2023-01-31T11:19:58.687Z,38.80
2023-01-31T11:22:26.536Z,38.80
2023-01-31T11:24:54.426Z,38.80
2023-01-31T11:27:22.580Z,38.60
2023-01-31T11:29:50.411Z,38.80
2023-01-31T11:32:18.559Z,38.60
2023-01-31T11:34:46.452Z,38.70
2023-01-31T11:37:14.491Z,38.60
2023-01-31T11:39:42.386Z,38.50
2023-01-31T11:42:10.473Z,38.70
2023-01-31T11:44:38.644Z,38.60
2023-01-31T11:47:08.220Z,38.60
2023-01-31T11:49:36.129Z,38.60
2023-01-31T11:52:04.114Z,38.70
2023-01-31T11:54:32.044Z,38.60
2023-01-31T11:57:02.422Z,38.60
2023-01-31T11:59:30.445Z,38.60
2023-01-31T12:01:58.356Z,38.60
2023-01-31T12:04:26.298Z,38.60
2023-01-31T12:06:54.434Z,38.50
2023-01-31T12:09:25.756Z,38.70
2023-01-31T12:11:53.873Z,39.10
2023-01-31T12:14:22.109Z,38.80
2023-01-31T12:16:50.170Z,38.80
2023-01-31T12:19:18.141Z,38.70
2023-01-31T12:21:46.092Z,38.60
2023-01-31T12:24:14.091Z,38.60
2023-01-31T12:26:42.021Z,38.60
2023-01-31T12:29:10.980Z,38.60
2023-01-31T12:31:39.879Z,38.70
2023-01-31T12:34:07.898Z,38.70
2023-01-31T12:36:36.073Z,38.70
2023-01-31T12:39:04.323Z,38.70
2023-01-31T12:41:32.191Z,38.50
2023-01-31T12:44:00.051Z,38.40
2023-01-31T12:46:28.135Z,38.50
2023-01-31T12:48:56.092Z,38.40
2023-01-31T12:51:23.996Z,38.50
2023-01-31T12:53:52.121Z,38.40
2023-01-31T12:56:20.202Z,38.50
2023-01-31T12:58:48.062Z,38.70
2023-01-31T13:01:16.000Z,38.60
2023-01-31T13:03:43.931Z,38.60
2023-01-31T13:06:15.582Z,38.40
2023-01-31T13:08:48.591Z,38.60
2023-01-31T13:11:24.934Z,38.50
2023-01-31T13:13:52.981Z,38.60
2023-01-31T13:16:20.928Z,38.70
2023-01-31T13:18:48.771Z,38.50
2023-01-31T13:21:16.840Z,38.60
2023-01-31T13:23:45.146Z,38.60
2023-01-31T13:26:13.157Z,38.40
2023-01-31T13:28:41.671Z,38.50
2023-01-31T13:31:09.606Z,38.40
2023-01-31T13:33:37.840Z,38.50
2023-01-31T13:36:05.814Z,38.50
2023-01-31T13:38:33.937Z,38.50
2023-01-31T13:41:01.833Z,38.60
2023-01-31T13:43:29.668Z,38.50
2023-01-31T13:45:57.530Z,38.50
2023-01-31T13:48:25.628Z,38.50
2023-01-31T13:50:53.654Z,38.50
2023-01-31T13:53:21.555Z,38.60
2023-01-31T13:55:49.681Z,38.60
2023-01-31T13:58:17.652Z,38.60
2023-01-31T14:00:45.543Z,38.60
2023-01-31T14:03:13.500Z,38.60
2023-01-31T14:05:41.499Z,38.50
2023-01-31T14:08:09.811Z,38.70
2023-01-31T14:10:37.674Z,38.60
2023-01-31T14:13:05.671Z,38.60
2023-01-31T14:15:33.589Z,38.70
2023-01-31T14:18:01.604Z,38.60
2023-01-31T14:20:29.494Z,38.60
2023-01-31T14:22:57.400Z,38.60
2023-01-31T14:25:25.298Z,38.60
2023-01-31T14:27:53.207Z,38.80
2023-01-31T14:30:21.026Z,38.80
2023-01-31T14:32:48.897Z,38.60
2023-01-31T14:35:16.727Z,38.70
2023-01-31T14:37:44.627Z,38.80
2023-01-31T14:40:12.517Z,38.70
2023-01-31T14:42:40.402Z,38.80
2023-01-31T14:45:08.388Z,38.70
2023-01-31T14:47:36.275Z,40.10
2023-01-31T14:50:04.201Z,36.20
2023-01-31T14:52:32.102Z,27.20
2023-01-31T14:54:59.951Z,22.30
2023-01-31T14:57:27.777Z,18.60
2023-01-31T14:59:55.692Z,16.50
2023-01-31T15:02:23.678Z,15.50
2023-01-31T15:04:51.631Z,14.90
2023-01-31T15:07:19.462Z,15.00
2023-01-31T15:09:50.240Z,15.40
2023-01-31T15:12:18.167Z,15.90
2023-01-31T15:14:48.080Z,16.40
2023-01-31T15:17:32.095Z,17.00
2023-01-31T15:20:02.192Z,17.60
2023-01-31T15:22:30.088Z,18.20
2023-01-31T15:24:58.241Z,18.70
2023-01-31T15:27:26.123Z,19.30
2023-01-31T15:29:54.028Z,19.70
2023-01-31T15:32:22.197Z,20.40
2023-01-31T15:34:50.097Z,21.00
2023-01-31T15:37:18.482Z,21.60
2023-01-31T15:39:46.336Z,22.20
2023-01-31T15:42:14.259Z,22.90
2023-01-31T15:44:42.223Z,23.40
2023-01-31T15:47:10.090Z,23.80
2023-01-31T15:49:40.583Z,23.80
2023-01-31T15:52:08.616Z,22.00
2023-01-31T15:54:36.470Z,19.90
2023-01-31T15:57:04.307Z,18.70
2023-01-31T15:59:32.190Z,18.20
2023-01-31T16:02:00.163Z,17.50
2023-01-31T16:04:28.255Z,16.90
2023-01-31T16:06:56.322Z,16.10
2023-01-31T16:09:24.260Z,15.50
2023-01-31T16:11:52.977Z,15.10
2023-01-31T16:14:20.908Z,14.50
2023-01-31T16:16:48.924Z,14.30
2023-01-31T16:19:16.833Z,13.90
2023-01-31T16:21:47.965Z,13.80
2023-01-31T16:24:16.051Z,13.70
2023-01-31T16:26:44.037Z,13.50
2023-01-31T16:29:11.997Z,13.40
2023-01-31T16:31:40.033Z,13.40
2023-01-31T16:34:07.925Z,13.40
2023-01-31T16:36:36.483Z,13.40
2023-01-31T16:39:04.369Z,13.50
2023-01-31T16:41:32.271Z,13.70
2023-01-31T16:44:01.487Z,13.70
2023-01-31T16:46:30.712Z,13.70
2023-01-31T16:48:58.609Z,14.00
2023-01-31T16:51:28.182Z,14.30
2023-01-31T16:53:56.091Z,14.70
2023-01-31T16:56:23.995Z,15.40
2023-01-31T16:58:52.293Z,16.00
2023-01-31T17:01:20.280Z,16.70
2023-01-31T17:03:48.150Z,17.90
2023-01-31T17:06:16.033Z,18.00
2023-01-31T17:08:43.892Z,18.80
2023-01-31T17:11:13.817Z,19.50
2023-01-31T17:13:44.622Z,20.10
2023-01-31T17:16:12.649Z,20.90
2023-01-31T17:18:40.573Z,21.50
2023-01-31T17:21:08.630Z,22.10
2023-01-31T17:23:36.611Z,22.70
2023-01-31T17:26:04.544Z,23.20
2023-01-31T17:28:32.900Z,23.90
2023-01-31T17:31:00.924Z,24.40
2023-01-31T17:33:28.851Z,24.80
2023-01-31T17:35:56.858Z,25.30
2023-01-31T17:38:24.924Z,25.70
2023-01-31T17:40:53.256Z,26.30
2023-01-31T17:43:21.297Z,26.50
2023-01-31T17:45:49.392Z,25.00
2023-01-31T17:48:26.406Z,22.50
2023-01-31T17:50:54.912Z,20.40
2023-01-31T17:53:22.884Z,18.90
2023-01-31T17:55:50.769Z,17.90
2023-01-31T17:58:19.326Z,17.10
2023-01-31T18:00:47.857Z,16.50
2023-01-31T18:03:15.904Z,16.10
2023-01-31T18:05:44.182Z,15.80
2023-01-31T18:08:12.383Z,16.10
2023-01-31T18:10:40.264Z,15.50
2023-01-31T18:13:08.342Z,15.60
2023-01-31T18:15:36.524Z,15.90
2023-01-31T18:18:08.650Z,16.30
2023-01-31T18:20:37.059Z,16.80
2023-01-31T18:23:04.937Z,17.50
2023-01-31T18:25:32.840Z,18.00
2023-01-31T18:28:00.815Z,18.60
2023-01-31T18:30:28.752Z,19.20
2023-01-31T18:32:56.711Z,19.90
2023-01-31T18:35:24.927Z,20.50
2023-01-31T18:37:53.610Z,21.20
2023-01-31T18:40:21.520Z,21.70
2023-01-31T18:42:49.397Z,22.40
2023-01-31T18:45:17.345Z,22.90
2023-01-31T18:47:45.263Z,23.40
2023-01-31T18:50:15.644Z,24.00
2023-01-31T18:52:44.116Z,24.30
2023-01-31T18:55:12.203Z,24.90
2023-01-31T18:57:40.134Z,24.40
2023-01-31T19:00:08.216Z,25.10
2023-01-31T19:02:36.231Z,24.80
2023-01-31T19:05:04.793Z,25.10
2023-01-31T19:07:34.719Z,25.50
2023-01-31T19:10:04.187Z,26.00
2023-01-31T19:12:32.611Z,26.50
2023-01-31T19:15:00.805Z,26.90
2023-01-31T19:17:28.989Z,27.40
2023-01-31T19:19:56.886Z,27.90
2023-01-31T19:22:28.584Z,28.40
2023-01-31T19:24:56.653Z,28.90
2023-01-31T19:27:24.605Z,29.40
2023-01-31T19:29:52.592Z,29.80
2023-01-31T19:32:22.530Z,30.10
2023-01-31T19:34:51.453Z,30.50
2023-01-31T19:37:20.904Z,30.90
2023-01-31T19:39:49.613Z,31.60
2023-01-31T19:42:17.807Z,31.90
2023-01-31T19:44:45.987Z,28.30
2023-01-31T19:47:13.872Z,24.30
2023-01-31T19:49:41.882Z,21.20
2023-01-31T19:52:10.055Z,19.50
2023-01-31T19:54:38.801Z,18.70
2023-01-31T19:57:06.871Z,18.40
2023-01-31T19:59:36.200Z,18.40
2023-01-31T20:02:04.182Z,18.80
2023-01-31T20:04:32.773Z,19.20
2023-01-31T20:07:00.683Z,20.20
2023-01-31T20:09:29.417Z,20.20
2023-01-31T20:11:57.320Z,20.80
2023-01-31T20:14:25.222Z,21.30
2023-01-31T20:16:53.164Z,22.40
2023-01-31T20:19:22.705Z,22.50
2023-01-31T20:21:50.819Z,23.00
2023-01-31T20:24:19.086Z,23.50
2023-01-31T20:26:47.080Z,24.10
2023-01-31T20:29:15.073Z,24.50
2023-01-31T20:31:43.073Z,24.90
2023-01-31T20:34:11.193Z,25.40
2023-01-31T20:36:39.509Z,25.80
2023-01-31T20:39:07.661Z,26.30
2023-01-31T20:41:37.728Z,26.70
2023-01-31T20:44:06.255Z,27.10
2023-01-31T20:46:34.174Z,27.50
2023-01-31T20:49:02.172Z,27.90
2023-01-31T20:51:30.528Z,28.30
2023-01-31T20:53:58.997Z,28.70
2023-01-31T20:56:26.887Z,29.00
2023-01-31T20:58:54.819Z,29.40
2023-01-31T21:01:23.317Z,29.80
2023-01-31T21:03:52.123Z,30.00
2023-01-31T21:06:20.279Z,30.40
2023-01-31T21:08:48.648Z,30.70
2023-01-31T21:11:16.697Z,31.10
2023-01-31T21:13:44.899Z,31.30
2023-01-31T21:16:12.934Z,31.80
2023-01-31T21:18:40.884Z,32.10
2023-01-31T21:21:09.112Z,32.40
2023-01-31T21:23:37.560Z,32.60
2023-01-31T21:26:05.468Z,32.80
2023-01-31T21:28:33.860Z,33.10
2023-01-31T21:31:02.614Z,33.30
2023-01-31T21:33:30.650Z,33.50
2023-01-31T21:36:00.692Z,33.70
2023-01-31T21:38:28.696Z,33.90
2023-01-31T21:41:10.371Z,34.00
2023-01-31T21:43:40.908Z,34.10
2023-01-31T21:46:08.840Z,34.20
2023-01-31T21:48:36.719Z,34.30
2023-01-31T21:51:04.792Z,34.40
2023-01-31T21:53:32.832Z,34.60
2023-01-31T21:56:00.706Z,34.60
2023-01-31T21:58:28.625Z,34.70
2023-01-31T22:03:57.341Z,35.10
2023-01-31T22:06:25.866Z,35.10
2023-01-31T22:08:53.787Z,35.20
2023-01-31T22:11:22.027Z,35.20
2023-01-31T22:13:52.226Z,35.40
2023-01-31T22:16:21.138Z,35.60
2023-01-31T22:18:49.054Z,35.70
2023-01-31T22:21:16.943Z,35.80
2023-01-31T22:23:44.899Z,36.00
2023-01-31T22:26:12.800Z,35.90
2023-01-31T22:28:40.732Z,36.10
2023-01-31T22:31:08.704Z,36.20
2023-01-31T22:33:36.591Z,36.20
2023-01-31T22:36:04.502Z,36.30
2023-01-31T22:38:32.382Z,36.30
2023-01-31T22:41:00.267Z,36.40
2023-01-31T22:43:28.132Z,36.50
2023-01-31T22:45:56.055Z,36.50
2023-01-31T22:48:23.907Z,36.70
2023-01-31T22:50:51.751Z,36.80
2023-01-31T22:53:19.621Z,36.70
2023-01-31T22:55:47.536Z,36.60
2023-01-31T22:58:16.090Z,37.30
2023-01-31T23:00:44.027Z,36.90
2023-01-31T23:03:12.277Z,36.80
2023-01-31T23:05:40.075Z,37.00
2023-01-31T23:08:08.353Z,36.90
2023-01-31T23:10:36.240Z,36.90
2023-01-31T23:13:04.156Z,37.00
2023-01-31T23:15:32.100Z,37.00
2023-01-31T23:18:00.109Z,37.00
2023-01-31T23:20:28.048Z,37.10
2023-01-31T23:22:55.976Z,36.90
2023-01-31T23:25:23.858Z,37.10
2023-01-31T23:27:51.776Z,37.20
2023-01-31T23:30:19.909Z,37.20
2023-01-31T23:32:47.988Z,37.10
2023-01-31T23:35:15.950Z,37.20
2023-01-31T23:37:43.985Z,37.30
2023-01-31T23:40:11.891Z,37.30
2023-01-31T23:42:39.727Z,37.40
2023-01-31T23:45:07.636Z,37.30
2023-01-31T23:47:35.504Z,37.30
2023-01-31T23:50:03.404Z,37.30
2023-01-31T23:52:31.293Z,37.40
2023-01-31T23:54:59.203Z,37.40
2023-01-31T23:57:27.043Z,37.20
2023-01-31T23:59:55.019Z,37.20
